sensor_id;sensor_type;location;lat;lon;timestamp;P1;P2;P0
42410;PMS5003;28056;51.112;0.984;2023-01-29T00:00:33;75;63;
42410;PMS5003;28056;51.112;0.984;2023-01-29T00:03:02;69;56;
42410;PMS5003;28056;51.112;0.984;2023-01-29T00:05:29;47;40;
42410;PMS5003;28056;51.112;0.984;2023-01-29T00:07:57;43;37;
42410;PMS5003;28056;51.112;0.984;2023-01-29T00:10:24;44;40;
42410;PMS5003;28056;51.112;0.984;2023-01-29T00:12:52;62;57;
42410;PMS5003;28056;51.112;0.984;2023-01-29T00:15:20;49;47;
42410;PMS5003;28056;51.112;0.984;2023-01-29T00:17:47;87;73;
42410;PMS5003;28056;51.112;0.984;2023-01-29T00:20:14;45;38;
42410;PMS5003;28056;51.112;0.984;2023-01-29T00:22:42;47;35;
42410;PMS5003;28056;51.112;0.984;2023-01-29T00:25:10;48;42;
42410;PMS5003;28056;51.112;0.984;2023-01-29T00:27:37;43;35;
42410;PMS5003;28056;51.112;0.984;2023-01-29T00:30:05;42;36;
42410;PMS5003;28056;51.112;0.984;2023-01-29T00:32:34;36;36;
42410;PMS5003;28056;51.112;0.984;2023-01-29T00:35:02;35;35;
42410;PMS5003;28056;51.112;0.984;2023-01-29T00:37:29;44;34;
42410;PMS5003;28056;51.112;0.984;2023-01-29T00:39:57;42;38;
42410;PMS5003;28056;51.112;0.984;2023-01-29T00:42:26;34;31;
42410;PMS5003;28056;51.112;0.984;2023-01-29T00:44:53;39;37;
42410;PMS5003;28056;51.112;0.984;2023-01-29T00:47:20;49;41;
42410;PMS5003;28056;51.112;0.984;2023-01-29T00:49:48;48;36;
42410;PMS5003;28056;51.112;0.984;2023-01-29T00:52:15;53;45;
42410;PMS5003;28056;51.112;0.984;2023-01-29T00:54:42;38;31;
42410;PMS5003;28056;51.112;0.984;2023-01-29T00:57:09;42;33;
42410;PMS5003;28056;51.112;0.984;2023-01-29T00:59:37;41;35;
42410;PMS5003;28056;51.112;0.984;2023-01-29T01:04:52;36;33;
42410;PMS5003;28056;51.112;0.984;2023-01-29T01:07:19;37;33;
42410;PMS5003;28056;51.112;0.984;2023-01-29T01:09:46;32;31;
42410;PMS5003;28056;51.112;0.984;2023-01-29T01:12:14;34;33;
42410;PMS5003;28056;51.112;0.984;2023-01-29T01:14:41;39;30;
42410;PMS5003;28056;51.112;0.984;2023-01-29T01:17:08;40;35;
42410;PMS5003;28056;51.112;0.984;2023-01-29T01:19:36;43;35;
42410;PMS5003;28056;51.112;0.984;2023-01-29T01:22:03;42;36;
42410;PMS5003;28056;51.112;0.984;2023-01-29T01:24:30;47;34;
42410;PMS5003;28056;51.112;0.984;2023-01-29T01:26:57;42;35;
42410;PMS5003;28056;51.112;0.984;2023-01-29T01:29:25;45;37;
42410;PMS5003;28056;51.112;0.984;2023-01-29T01:31:53;43;35;
42410;PMS5003;28056;51.112;0.984;2023-01-29T01:34:21;35;34;
42410;PMS5003;28056;51.112;0.984;2023-01-29T01:36:48;38;32;
42410;PMS5003;28056;51.112;0.984;2023-01-29T01:39:15;38;38;
42410;PMS5003;28056;51.112;0.984;2023-01-29T01:41:44;49;39;
42410;PMS5003;28056;51.112;0.984;2023-01-29T01:44:48;46;30;
42410;PMS5003;28056;51.112;0.984;2023-01-29T01:47:18;42;32;
42410;PMS5003;28056;51.112;0.984;2023-01-29T01:49:50;36;32;
42410;PMS5003;28056;51.112;0.984;2023-01-29T01:52:18;41;34;
42410;PMS5003;28056;51.112;0.984;2023-01-29T01:54:46;37;34;
42410;PMS5003;28056;51.112;0.984;2023-01-29T01:57:16;37;34;
42410;PMS5003;28056;51.112;0.984;2023-01-29T01:59:47;42;32;
42410;PMS5003;28056;51.112;0.984;2023-01-29T02:02:19;35;32;
42410;PMS5003;28056;51.112;0.984;2023-01-29T02:04:47;28;28;
42410;PMS5003;28056;51.112;0.984;2023-01-29T02:07:15;36;33;
42410;PMS5003;28056;51.112;0.984;2023-01-29T02:09:45;41;35;
42410;PMS5003;28056;51.112;0.984;2023-01-29T02:12:16;43;36;
42410;PMS5003;28056;51.112;0.984;2023-01-29T02:14:44;42;32;
42410;PMS5003;28056;51.112;0.984;2023-01-29T02:17:12;43;35;
42410;PMS5003;28056;51.112;0.984;2023-01-29T02:19:44;39;32;
42410;PMS5003;28056;51.112;0.984;2023-01-29T02:22:23;50;41;
42410;PMS5003;28056;51.112;0.984;2023-01-29T02:25:09;41;35;
42410;PMS5003;28056;51.112;0.984;2023-01-29T02:28:00;39;36;
42410;PMS5003;28056;51.112;0.984;2023-01-29T02:30:40;50;38;
42410;PMS5003;28056;51.112;0.984;2023-01-29T02:33:17;46;41;
42410;PMS5003;28056;51.112;0.984;2023-01-29T02:35:54;53;42;
42410;PMS5003;28056;51.112;0.984;2023-01-29T02:38:28;48;40;
42410;PMS5003;28056;51.112;0.984;2023-01-29T02:41:03;42;37;
42410;PMS5003;28056;51.112;0.984;2023-01-29T02:43:39;39;34;
42410;PMS5003;28056;51.112;0.984;2023-01-29T02:46:14;56;44;
42410;PMS5003;28056;51.112;0.984;2023-01-29T02:48:47;49;44;
42410;PMS5003;28056;51.112;0.984;2023-01-29T02:51:20;42;36;
42410;PMS5003;28056;51.112;0.984;2023-01-29T02:53:57;48;41;
42410;PMS5003;28056;51.112;0.984;2023-01-29T02:56:31;46;38;
42410;PMS5003;28056;51.112;0.984;2023-01-29T02:59:05;39;33;
42410;PMS5003;28056;51.112;0.984;2023-01-29T03:01:39;41;35;
42410;PMS5003;28056;51.112;0.984;2023-01-29T03:04:13;57;43;
42410;PMS5003;28056;51.112;0.984;2023-01-29T03:06:47;37;35;
42410;PMS5003;28056;51.112;0.984;2023-01-29T03:09:18;45;41;
42410;PMS5003;28056;51.112;0.984;2023-01-29T03:11:51;39;38;
42410;PMS5003;28056;51.112;0.984;2023-01-29T03:14:23;43;41;
42410;PMS5003;28056;51.112;0.984;2023-01-29T03:16:56;49;45;
42410;PMS5003;28056;51.112;0.984;2023-01-29T03:19:26;39;35;
42410;PMS5003;28056;51.112;0.984;2023-01-29T03:22:01;41;38;
42410;PMS5003;28056;51.112;0.984;2023-01-29T03:24:33;50;42;
42410;PMS5003;28056;51.112;0.984;2023-01-29T03:27:06;39;32;
42410;PMS5003;28056;51.112;0.984;2023-01-29T03:29:35;47;36;
42410;PMS5003;28056;51.112;0.984;2023-01-29T03:32:07;45;41;
42410;PMS5003;28056;51.112;0.984;2023-01-29T03:34:39;42;39;
42410;PMS5003;28056;51.112;0.984;2023-01-29T03:37:10;36;32;
42410;PMS5003;28056;51.112;0.984;2023-01-29T03:39:43;38;35;
42410;PMS5003;28056;51.112;0.984;2023-01-29T03:42:12;48;41;
42410;PMS5003;28056;51.112;0.984;2023-01-29T03:44:48;39;39;
42410;PMS5003;28056;51.112;0.984;2023-01-29T03:47:23;48;39;
42410;PMS5003;28056;51.112;0.984;2023-01-29T03:49:58;40;39;
42410;PMS5003;28056;51.112;0.984;2023-01-29T03:52:34;42;34;
42410;PMS5003;28056;51.112;0.984;2023-01-29T03:55:10;50;41;
42410;PMS5003;28056;51.112;0.984;2023-01-29T03:57:41;50;40;
42410;PMS5003;28056;51.112;0.984;2023-01-29T04:00:17;47;42;
42410;PMS5003;28056;51.112;0.984;2023-01-29T04:02:49;49;46;
42410;PMS5003;28056;51.112;0.984;2023-01-29T04:05:23;46;41;
42410;PMS5003;28056;51.112;0.984;2023-01-29T04:07:56;37;34;
42410;PMS5003;28056;51.112;0.984;2023-01-29T04:10:29;45;41;
42410;PMS5003;28056;51.112;0.984;2023-01-29T04:13:00;42;38;
42410;PMS5003;28056;51.112;0.984;2023-01-29T04:15:33;48;45;
42410;PMS5003;28056;51.112;0.984;2023-01-29T04:18:07;49;38;
42410;PMS5003;28056;51.112;0.984;2023-01-29T04:20:36;51;40;
42410;PMS5003;28056;51.112;0.984;2023-01-29T04:23:04;51;41;
42410;PMS5003;28056;51.112;0.984;2023-01-29T04:25:35;49;38;
42410;PMS5003;28056;51.112;0.984;2023-01-29T04:28:11;56;42;
42410;PMS5003;28056;51.112;0.984;2023-01-29T04:30:45;36;34;
42410;PMS5003;28056;51.112;0.984;2023-01-29T04:33:21;46;36;
42410;PMS5003;28056;51.112;0.984;2023-01-29T04:36:00;40;36;
42410;PMS5003;28056;51.112;0.984;2023-01-29T04:38:39;41;39;
42410;PMS5003;28056;51.112;0.984;2023-01-29T04:41:16;53;46;
42410;PMS5003;28056;51.112;0.984;2023-01-29T04:43:52;40;36;
42410;PMS5003;28056;51.112;0.984;2023-01-29T04:46:26;41;36;
42410;PMS5003;28056;51.112;0.984;2023-01-29T04:49:03;57;44;
42410;PMS5003;28056;51.112;0.984;2023-01-29T04:51:45;44;39;
42410;PMS5003;28056;51.112;0.984;2023-01-29T04:54:18;37;33;
42410;PMS5003;28056;51.112;0.984;2023-01-29T04:56:55;45;41;
42410;PMS5003;28056;51.112;0.984;2023-01-29T04:59:29;45;38;
42410;PMS5003;28056;51.112;0.984;2023-01-29T05:02:00;39;33;
42410;PMS5003;28056;51.112;0.984;2023-01-29T05:04:30;37;35;
42410;PMS5003;28056;51.112;0.984;2023-01-29T05:07:00;41;39;
42410;PMS5003;28056;51.112;0.984;2023-01-29T05:09:29;41;35;
42410;PMS5003;28056;51.112;0.984;2023-01-29T05:11:59;46;42;
42410;PMS5003;28056;51.112;0.984;2023-01-29T05:14:28;49;43;
42410;PMS5003;28056;51.112;0.984;2023-01-29T05:16:58;49;46;
42410;PMS5003;28056;51.112;0.984;2023-01-29T05:19:30;43;35;
42410;PMS5003;28056;51.112;0.984;2023-01-29T05:21:58;46;41;
42410;PMS5003;28056;51.112;0.984;2023-01-29T05:24:26;39;37;
42410;PMS5003;28056;51.112;0.984;2023-01-29T05:26:54;42;41;
42410;PMS5003;28056;51.112;0.984;2023-01-29T05:29:22;42;38;
42410;PMS5003;28056;51.112;0.984;2023-01-29T05:31:49;46;38;
42410;PMS5003;28056;51.112;0.984;2023-01-29T05:34:16;47;40;
42410;PMS5003;28056;51.112;0.984;2023-01-29T05:36:43;54;43;
42410;PMS5003;28056;51.112;0.984;2023-01-29T05:39:11;44;40;
42410;PMS5003;28056;51.112;0.984;2023-01-29T05:41:39;54;42;
42410;PMS5003;28056;51.112;0.984;2023-01-29T05:44:08;48;41;
42410;PMS5003;28056;51.112;0.984;2023-01-29T05:46:36;45;41;
42410;PMS5003;28056;51.112;0.984;2023-01-29T05:49:03;43;40;
42410;PMS5003;28056;51.112;0.984;2023-01-29T05:51:31;52;46;
42410;PMS5003;28056;51.112;0.984;2023-01-29T05:53:59;44;40;
42410;PMS5003;28056;51.112;0.984;2023-01-29T05:56:26;53;47;
42410;PMS5003;28056;51.112;0.984;2023-01-29T05:58:54;43;41;
42410;PMS5003;28056;51.112;0.984;2023-01-29T06:01:22;50;43;
42410;PMS5003;28056;51.112;0.984;2023-01-29T06:03:51;51;39;
42410;PMS5003;28056;51.112;0.984;2023-01-29T06:06:19;50;45;
42410;PMS5003;28056;51.112;0.984;2023-01-29T06:08:47;51;48;
42410;PMS5003;28056;51.112;0.984;2023-01-29T06:11:14;44;43;
42410;PMS5003;28056;51.112;0.984;2023-01-29T06:13:42;47;44;
42410;PMS5003;28056;51.112;0.984;2023-01-29T06:16:10;48;40;
42410;PMS5003;28056;51.112;0.984;2023-01-29T06:18:38;46;41;
42410;PMS5003;28056;51.112;0.984;2023-01-29T06:21:07;51;44;
42410;PMS5003;28056;51.112;0.984;2023-01-29T06:23:37;63;46;
42410;PMS5003;28056;51.112;0.984;2023-01-29T06:26:05;64;51;
42410;PMS5003;28056;51.112;0.984;2023-01-29T06:28:34;86;71;
42410;PMS5003;28056;51.112;0.984;2023-01-29T06:31:02;66;48;
42410;PMS5003;28056;51.112;0.984;2023-01-29T06:33:31;45;37;
42410;PMS5003;28056;51.112;0.984;2023-01-29T06:35:58;57;48;
42410;PMS5003;28056;51.112;0.984;2023-01-29T06:38:27;46;42;
42410;PMS5003;28056;51.112;0.984;2023-01-29T06:40:55;108;96;
42410;PMS5003;28056;51.112;0.984;2023-01-29T06:43:24;66;54;
42410;PMS5003;28056;51.112;0.984;2023-01-29T06:45:53;49;42;
42410;PMS5003;28056;51.112;0.984;2023-01-29T06:48:21;54;42;
42410;PMS5003;28056;51.112;0.984;2023-01-29T06:50:49;50;38;
42410;PMS5003;28056;51.112;0.984;2023-01-29T06:53:17;34;31;
42410;PMS5003;28056;51.112;0.984;2023-01-29T06:55:50;40;31;
42410;PMS5003;28056;51.112;0.984;2023-01-29T06:58:17;42;34;
42410;PMS5003;28056;51.112;0.984;2023-01-29T07:00:46;41;36;
42410;PMS5003;28056;51.112;0.984;2023-01-29T07:03:13;49;45;
42410;PMS5003;28056;51.112;0.984;2023-01-29T07:05:41;45;39;
42410;PMS5003;28056;51.112;0.984;2023-01-29T07:08:08;49;41;
42410;PMS5003;28056;51.112;0.984;2023-01-29T07:10:36;44;41;
42410;PMS5003;28056;51.112;0.984;2023-01-29T07:13:03;41;35;
42410;PMS5003;28056;51.112;0.984;2023-01-29T07:15:31;36;35;
42410;PMS5003;28056;51.112;0.984;2023-01-29T07:17:59;38;29;
42410;PMS5003;28056;51.112;0.984;2023-01-29T07:20:28;30;27;
42410;PMS5003;28056;51.112;0.984;2023-01-29T07:22:57;45;34;
42410;PMS5003;28056;51.112;0.984;2023-01-29T07:25:25;37;31;
42410;PMS5003;28056;51.112;0.984;2023-01-29T07:27:53;42;34;
42410;PMS5003;28056;51.112;0.984;2023-01-29T07:30:20;38;29;
42410;PMS5003;28056;51.112;0.984;2023-01-29T07:32:47;38;36;
42410;PMS5003;28056;51.112;0.984;2023-01-29T07:35:14;48;34;
42410;PMS5003;28056;51.112;0.984;2023-01-29T07:37:42;31;27;
42410;PMS5003;28056;51.112;0.984;2023-01-29T07:40:10;30;27;
42410;PMS5003;28056;51.112;0.984;2023-01-29T07:42:37;41;36;
42410;PMS5003;28056;51.112;0.984;2023-01-29T07:45:05;41;27;
42410;PMS5003;28056;51.112;0.984;2023-01-29T07:47:34;44;36;
42410;PMS5003;28056;51.112;0.984;2023-01-29T07:50:02;35;27;
42410;PMS5003;28056;51.112;0.984;2023-01-29T07:52:32;33;29;
42410;PMS5003;28056;51.112;0.984;2023-01-29T07:55:00;34;27;
42410;PMS5003;28056;51.112;0.984;2023-01-29T07:57:27;32;27;
42410;PMS5003;28056;51.112;0.984;2023-01-29T07:59:54;31;23;
42410;PMS5003;28056;51.112;0.984;2023-01-29T08:02:23;36;31;
42410;PMS5003;28056;51.112;0.984;2023-01-29T08:04:51;31;23;
42410;PMS5003;28056;51.112;0.984;2023-01-29T08:07:18;30;27;
42410;PMS5003;28056;51.112;0.984;2023-01-29T08:09:46;33;25;
42410;PMS5003;28056;51.112;0.984;2023-01-29T08:12:13;36;32;
42410;PMS5003;28056;51.112;0.984;2023-01-29T08:14:41;39;32;
42410;PMS5003;28056;51.112;0.984;2023-01-29T08:17:09;36;26;
42410;PMS5003;28056;51.112;0.984;2023-01-29T08:19:36;33;33;
42410;PMS5003;28056;51.112;0.984;2023-01-29T08:22:03;36;27;
42410;PMS5003;28056;51.112;0.984;2023-01-29T08:24:31;30;27;
42410;PMS5003;28056;51.112;0.984;2023-01-29T08:26:59;36;32;
42410;PMS5003;28056;51.112;0.984;2023-01-29T08:29:26;36;30;
42410;PMS5003;28056;51.112;0.984;2023-01-29T08:31:53;30;27;
42410;PMS5003;28056;51.112;0.984;2023-01-29T08:34:20;30;25;
42410;PMS5003;28056;51.112;0.984;2023-01-29T08:36:48;35;30;
42410;PMS5003;28056;51.112;0.984;2023-01-29T08:39:16;31;30;
42410;PMS5003;28056;51.112;0.984;2023-01-29T08:41:43;34;31;
42410;PMS5003;28056;51.112;0.984;2023-01-29T08:44:10;38;33;
42410;PMS5003;28056;51.112;0.984;2023-01-29T08:46:37;29;24;
42410;PMS5003;28056;51.112;0.984;2023-01-29T08:49:04;34;27;
42410;PMS5003;28056;51.112;0.984;2023-01-29T08:51:32;42;31;
42410;PMS5003;28056;51.112;0.984;2023-01-29T08:53:59;35;27;
42410;PMS5003;28056;51.112;0.984;2023-01-29T08:56:27;31;28;
42410;PMS5003;28056;51.112;0.984;2023-01-29T08:58:54;34;29;
42410;PMS5003;28056;51.112;0.984;2023-01-29T09:01:21;39;32;
42410;PMS5003;28056;51.112;0.984;2023-01-29T09:03:49;44;37;
42410;PMS5003;28056;51.112;0.984;2023-01-29T09:06:16;47;37;
42410;PMS5003;28056;51.112;0.984;2023-01-29T09:08:44;40;37;
42410;PMS5003;28056;51.112;0.984;2023-01-29T09:11:11;36;33;
42410;PMS5003;28056;51.112;0.984;2023-01-29T09:13:39;28;28;
42410;PMS5003;28056;51.112;0.984;2023-01-29T09:16:08;43;28;
42410;PMS5003;28056;51.112;0.984;2023-01-29T09:18:36;35;27;
42410;PMS5003;28056;51.112;0.984;2023-01-29T09:21:04;43;32;
42410;PMS5003;28056;51.112;0.984;2023-01-29T09:23:32;45;34;
42410;PMS5003;28056;51.112;0.984;2023-01-29T09:25:59;34;28;
42410;PMS5003;28056;51.112;0.984;2023-01-29T09:28:27;46;31;
42410;PMS5003;28056;51.112;0.984;2023-01-29T09:30:55;35;25;
42410;PMS5003;28056;51.112;0.984;2023-01-29T09:33:26;28;25;
42410;PMS5003;28056;51.112;0.984;2023-01-29T09:35:53;32;25;
42410;PMS5003;28056;51.112;0.984;2023-01-29T09:38:20;36;28;
42410;PMS5003;28056;51.112;0.984;2023-01-29T09:40:51;39;38;
42410;PMS5003;28056;51.112;0.984;2023-01-29T09:43:25;39;31;
42410;PMS5003;28056;51.112;0.984;2023-01-29T09:46:06;31;24;
42410;PMS5003;28056;51.112;0.984;2023-01-29T09:48:42;37;33;
42410;PMS5003;28056;51.112;0.984;2023-01-29T09:51:14;37;30;
42410;PMS5003;28056;51.112;0.984;2023-01-29T09:53:51;32;27;
42410;PMS5003;28056;51.112;0.984;2023-01-29T09:56:26;31;27;
42410;PMS5003;28056;51.112;0.984;2023-01-29T09:58:55;33;28;
42410;PMS5003;28056;51.112;0.984;2023-01-29T10:01:26;35;24;
42410;PMS5003;28056;51.112;0.984;2023-01-29T10:04:01;42;34;
42410;PMS5003;28056;51.112;0.984;2023-01-29T10:06:47;32;25;
42410;PMS5003;28056;51.112;0.984;2023-01-29T10:09:29;33;31;
42410;PMS5003;28056;51.112;0.984;2023-01-29T10:12:17;29;25;
42410;PMS5003;28056;51.112;0.984;2023-01-29T10:14:58;29;25;
42410;PMS5003;28056;51.112;0.984;2023-01-29T10:17:43;32;28;
42410;PMS5003;28056;51.112;0.984;2023-01-29T10:20:27;27;21;
42410;PMS5003;28056;51.112;0.984;2023-01-29T10:23:18;27;23;
42410;PMS5003;28056;51.112;0.984;2023-01-29T10:25:50;27;24;
42410;PMS5003;28056;51.112;0.984;2023-01-29T10:28:19;27;20;
42410;PMS5003;28056;51.112;0.984;2023-01-29T10:30:52;25;25;
42410;PMS5003;28056;51.112;0.984;2023-01-29T10:33:25;25;25;
42410;PMS5003;28056;51.112;0.984;2023-01-29T10:36:00;29;22;
42410;PMS5003;28056;51.112;0.984;2023-01-29T10:38:34;20;17;
42410;PMS5003;28056;51.112;0.984;2023-01-29T10:41:19;33;26;
42410;PMS5003;28056;51.112;0.984;2023-01-29T10:44:00;24;17;
42410;PMS5003;28056;51.112;0.984;2023-01-29T10:46:42;17;12;
42410;PMS5003;28056;51.112;0.984;2023-01-29T10:49:22;25;20;
42410;PMS5003;28056;51.112;0.984;2023-01-29T10:52:07;22;18;
42410;PMS5003;28056;51.112;0.984;2023-01-29T10:54:47;20;17;
42410;PMS5003;28056;51.112;0.984;2023-01-29T10:57:30;17;13;
42410;PMS5003;28056;51.112;0.984;2023-01-29T11:00:08;14;12;
42410;PMS5003;28056;51.112;0.984;2023-01-29T11:02:43;17;17;
42410;PMS5003;28056;51.112;0.984;2023-01-29T11:05:16;16;9;
42410;PMS5003;28056;51.112;0.984;2023-01-29T11:07:50;10;9;
42410;PMS5003;28056;51.112;0.984;2023-01-29T11:10:26;13;8;
42410;PMS5003;28056;51.112;0.984;2023-01-29T11:12:55;18;10;
42410;PMS5003;28056;51.112;0.984;2023-01-29T11:15:25;12;9;
42410;PMS5003;28056;51.112;0.984;2023-01-29T11:18:00;14;10;
42410;PMS5003;28056;51.112;0.984;2023-01-29T11:20:30;10;8;
42410;PMS5003;28056;51.112;0.984;2023-01-29T11:22:59;12;12;
42410;PMS5003;28056;51.112;0.984;2023-01-29T11:25:27;20;13;
42410;PMS5003;28056;51.112;0.984;2023-01-29T11:27:55;12;12;
42410;PMS5003;28056;51.112;0.984;2023-01-29T11:30:24;13;9;
42410;PMS5003;28056;51.112;0.984;2023-01-29T11:32:57;17;15;
42410;PMS5003;28056;51.112;0.984;2023-01-29T11:35:33;12;12;
42410;PMS5003;28056;51.112;0.984;2023-01-29T11:38:05;13;10;
42410;PMS5003;28056;51.112;0.984;2023-01-29T11:40:36;16;8;
42410;PMS5003;28056;51.112;0.984;2023-01-29T11:43:17;12;12;
42410;PMS5003;28056;51.112;0.984;2023-01-29T11:45:46;14;13;
42410;PMS5003;28056;51.112;0.984;2023-01-29T11:48:16;17;14;
42410;PMS5003;28056;51.112;0.984;2023-01-29T11:50:50;16;14;
42410;PMS5003;28056;51.112;0.984;2023-01-29T11:53:21;12;12;
42410;PMS5003;28056;51.112;0.984;2023-01-29T11:56:00;10;10;
42410;PMS5003;28056;51.112;0.984;2023-01-29T11:58:31;9;8;
42410;PMS5003;28056;51.112;0.984;2023-01-29T12:01:01;14;10;
42410;PMS5003;28056;51.112;0.984;2023-01-29T12:03:31;13;10;
42410;PMS5003;28056;51.112;0.984;2023-01-29T12:06:02;11;10;
42410;PMS5003;28056;51.112;0.984;2023-01-29T12:08:35;13;9;
42410;PMS5003;28056;51.112;0.984;2023-01-29T12:11:08;17;9;
42410;PMS5003;28056;51.112;0.984;2023-01-29T12:13:37;12;12;
42410;PMS5003;28056;51.112;0.984;2023-01-29T12:16:16;15;13;
42410;PMS5003;28056;51.112;0.984;2023-01-29T12:18:50;14;13;
42410;PMS5003;28056;51.112;0.984;2023-01-29T12:21:22;11;11;
42410;PMS5003;28056;51.112;0.984;2023-01-29T12:23:56;11;11;
42410;PMS5003;28056;51.112;0.984;2023-01-29T12:26:30;13;9;
42410;PMS5003;28056;51.112;0.984;2023-01-29T12:29:06;11;11;
42410;PMS5003;28056;51.112;0.984;2023-01-29T12:31:47;14;9;
42410;PMS5003;28056;51.112;0.984;2023-01-29T12:34:22;11;10;
42410;PMS5003;28056;51.112;0.984;2023-01-29T12:37:01;11;11;
42410;PMS5003;28056;51.112;0.984;2023-01-29T12:39:37;10;10;
42410;PMS5003;28056;51.112;0.984;2023-01-29T12:42:07;12;8;
42410;PMS5003;28056;51.112;0.984;2023-01-29T12:44:41;11;11;
42410;PMS5003;28056;51.112;0.984;2023-01-29T12:47:14;9;9;
42410;PMS5003;28056;51.112;0.984;2023-01-29T12:49:49;12;9;
42410;PMS5003;28056;51.112;0.984;2023-01-29T12:52:20;10;7;
42410;PMS5003;28056;51.112;0.984;2023-01-29T12:54:55;14;10;
42410;PMS5003;28056;51.112;0.984;2023-01-29T12:57:31;10;7;
42410;PMS5003;28056;51.112;0.984;2023-01-29T13:00:05;10;7;
42410;PMS5003;28056;51.112;0.984;2023-01-29T13:02:39;10;9;
42410;PMS5003;28056;51.112;0.984;2023-01-29T13:05:16;14;10;
42410;PMS5003;28056;51.112;0.984;2023-01-29T13:07:50;11;9;
42410;PMS5003;28056;51.112;0.984;2023-01-29T13:10:24;15;13;
42410;PMS5003;28056;51.112;0.984;2023-01-29T13:12:57;10;6;
42410;PMS5003;28056;51.112;0.984;2023-01-29T13:15:30;10;10;
42410;PMS5003;28056;51.112;0.984;2023-01-29T13:18:06;9;9;
42410;PMS5003;28056;51.112;0.984;2023-01-29T13:20:47;11;10;
42410;PMS5003;28056;51.112;0.984;2023-01-29T13:23:17;10;10;
42410;PMS5003;28056;51.112;0.984;2023-01-29T13:25:49;14;9;
42410;PMS5003;28056;51.112;0.984;2023-01-29T13:28:17;10;10;
42410;PMS5003;28056;51.112;0.984;2023-01-29T13:31:07;13;10;
42410;PMS5003;28056;51.112;0.984;2023-01-29T13:33:37;9;8;
42410;PMS5003;28056;51.112;0.984;2023-01-29T13:36:10;9;9;
42410;PMS5003;28056;51.112;0.984;2023-01-29T13:38:43;9;9;
42410;PMS5003;28056;51.112;0.984;2023-01-29T13:41:10;11;6;
42410;PMS5003;28056;51.112;0.984;2023-01-29T13:43:39;6;5;
42410;PMS5003;28056;51.112;0.984;2023-01-29T13:46:09;14;9;
42410;PMS5003;28056;51.112;0.984;2023-01-29T13:48:40;6;6;
42410;PMS5003;28056;51.112;0.984;2023-01-29T13:51:10;12;10;
42410;PMS5003;28056;51.112;0.984;2023-01-29T13:53:40;8;8;
42410;PMS5003;28056;51.112;0.984;2023-01-29T13:57:31;12;9;
42410;PMS5003;28056;51.112;0.984;2023-01-29T14:00:02;10;9;
42410;PMS5003;28056;51.112;0.984;2023-01-29T14:02:30;6;6;
42410;PMS5003;28056;51.112;0.984;2023-01-29T14:06:02;17;12;
42410;PMS5003;28056;51.112;0.984;2023-01-29T14:08:36;12;8;
42410;PMS5003;28056;51.112;0.984;2023-01-29T14:11:39;12;8;
42410;PMS5003;28056;51.112;0.984;2023-01-29T14:14:49;10;8;
42410;PMS5003;28056;51.112;0.984;2023-01-29T14:17:25;14;7;
42410;PMS5003;28056;51.112;0.984;2023-01-29T14:19:56;7;7;
42410;PMS5003;28056;51.112;0.984;2023-01-29T14:22:27;13;10;
42410;PMS5003;28056;51.112;0.984;2023-01-29T14:24:58;13;7;
42410;PMS5003;28056;51.112;0.984;2023-01-29T14:27:28;9;7;
42410;PMS5003;28056;51.112;0.984;2023-01-29T14:29:58;7;7;
42410;PMS5003;28056;51.112;0.984;2023-01-29T14:32:32;9;7;
42410;PMS5003;28056;51.112;0.984;2023-01-29T14:35:00;9;7;
42410;PMS5003;28056;51.112;0.984;2023-01-29T14:37:31;5;5;
42410;PMS5003;28056;51.112;0.984;2023-01-29T14:40:11;9;6;
42410;PMS5003;28056;51.112;0.984;2023-01-29T14:42:51;9;9;
42410;PMS5003;28056;51.112;0.984;2023-01-29T14:45:25;9;9;
42410;PMS5003;28056;51.112;0.984;2023-01-29T14:47:54;11;7;
42410;PMS5003;28056;51.112;0.984;2023-01-29T14:50:58;11;7;
42410;PMS5003;28056;51.112;0.984;2023-01-29T14:53:43;9;6;
42410;PMS5003;28056;51.112;0.984;2023-01-29T14:56:22;9;9;
42410;PMS5003;28056;51.112;0.984;2023-01-29T14:58:56;6;6;
42410;PMS5003;28056;51.112;0.984;2023-01-29T15:01:37;9;7;
42410;PMS5003;28056;51.112;0.984;2023-01-29T15:04:12;5;5;
42410;PMS5003;28056;51.112;0.984;2023-01-29T15:06:46;7;5;
42410;PMS5003;28056;51.112;0.984;2023-01-29T15:09:19;7;7;
42410;PMS5003;28056;51.112;0.984;2023-01-29T15:12:02;10;6;
42410;PMS5003;28056;51.112;0.984;2023-01-29T15:14:40;9;9;
42410;PMS5003;28056;51.112;0.984;2023-01-29T15:17:17;11;7;
42410;PMS5003;28056;51.112;0.984;2023-01-29T15:19:50;7;7;
42410;PMS5003;28056;51.112;0.984;2023-01-29T15:22:18;7;5;
42410;PMS5003;28056;51.112;0.984;2023-01-29T15:24:47;9;9;
42410;PMS5003;28056;51.112;0.984;2023-01-29T15:27:29;5;5;
42410;PMS5003;28056;51.112;0.984;2023-01-29T15:29:58;9;7;
42410;PMS5003;28056;51.112;0.984;2023-01-29T15:32:31;9;7;
42410;PMS5003;28056;51.112;0.984;2023-01-29T15:35:05;6;6;
42410;PMS5003;28056;51.112;0.984;2023-01-29T15:37:35;7;7;
42410;PMS5003;28056;51.112;0.984;2023-01-29T15:40:05;9;9;
42410;PMS5003;28056;51.112;0.984;2023-01-29T15:42:42;6;6;
42410;PMS5003;28056;51.112;0.984;2023-01-29T15:45:20;10;7;
42410;PMS5003;28056;51.112;0.984;2023-01-29T15:47:48;7;7;
42410;PMS5003;28056;51.112;0.984;2023-01-29T15:50:18;6;5;
42410;PMS5003;28056;51.112;0.984;2023-01-29T15:52:47;7;7;
42410;PMS5003;28056;51.112;0.984;2023-01-29T15:55:16;9;9;
42410;PMS5003;28056;51.112;0.984;2023-01-29T15:57:46;10;9;
42410;PMS5003;28056;51.112;0.984;2023-01-29T16:00:19;9;7;
42410;PMS5003;28056;51.112;0.984;2023-01-29T16:02:49;6;6;
42410;PMS5003;28056;51.112;0.984;2023-01-29T16:05:17;11;7;
42410;PMS5003;28056;51.112;0.984;2023-01-29T16:07:46;9;7;
42410;PMS5003;28056;51.112;0.984;2023-01-29T16:10:16;7;7;
42410;PMS5003;28056;51.112;0.984;2023-01-29T16:12:45;7;7;
42410;PMS5003;28056;51.112;0.984;2023-01-29T16:15:19;6;5;
42410;PMS5003;28056;51.112;0.984;2023-01-29T16:17:52;11;10;
42410;PMS5003;28056;51.112;0.984;2023-01-29T16:20:28;18;18;
42410;PMS5003;28056;51.112;0.984;2023-01-29T16:22:58;14;14;
42410;PMS5003;28056;51.112;0.984;2023-01-29T16:25:27;14;14;
42410;PMS5003;28056;51.112;0.984;2023-01-29T16:27:56;19;17;
42410;PMS5003;28056;51.112;0.984;2023-01-29T16:30:24;19;17;
42410;PMS5003;28056;51.112;0.984;2023-01-29T16:32:53;17;13;
42410;PMS5003;28056;51.112;0.984;2023-01-29T16:35:28;11;11;
42410;PMS5003;28056;51.112;0.984;2023-01-29T16:37:57;18;17;
42410;PMS5003;28056;51.112;0.984;2023-01-29T16:40:29;14;13;
42410;PMS5003;28056;51.112;0.984;2023-01-29T16:43:20;20;19;
42410;PMS5003;28056;51.112;0.984;2023-01-29T16:46:16;26;20;
42410;PMS5003;28056;51.112;0.984;2023-01-29T16:48:49;10;10;
42410;PMS5003;28056;51.112;0.984;2023-01-29T16:51:20;15;12;
42410;PMS5003;28056;51.112;0.984;2023-01-29T16:53:52;16;15;
42410;PMS5003;28056;51.112;0.984;2023-01-29T16:56:23;16;14;
42410;PMS5003;28056;51.112;0.984;2023-01-29T16:58:52;14;12;